createdAt,value
2022-09-15T00:00:01.060Z,16.80
2022-09-15T00:01:34.050Z,16.80
2022-09-15T00:03:06.044Z,16.80
2022-09-15T00:04:38.962Z,16.80
2022-09-15T00:06:13.522Z,16.80
2022-09-15T00:07:46.490Z,16.80
2022-09-15T00:09:19.506Z,16.80
2022-09-15T00:10:54.727Z,16.80
2022-09-15T00:12:28.641Z,16.90
2022-09-15T00:14:03.353Z,16.90
2022-09-15T00:15:35.797Z,16.90
2022-09-15T00:17:08.794Z,16.90
2022-09-15T00:18:42.669Z,16.90
2022-09-15T00:20:16.290Z,16.90
2022-09-15T00:21:50.519Z,16.90
2022-09-15T00:23:23.399Z,16.90
2022-09-15T00:24:56.248Z,16.90
2022-09-15T00:26:31.561Z,16.90
2022-09-15T00:28:04.435Z,16.80
2022-09-15T00:29:37.988Z,16.90
2022-09-15T00:31:12.742Z,16.90
2022-09-15T00:32:45.645Z,16.90
2022-09-15T00:34:18.530Z,16.90
2022-09-15T00:35:52.664Z,16.90
2022-09-15T00:37:27.335Z,16.90
2022-09-15T00:39:00.320Z,16.90
2022-09-15T00:40:32.328Z,16.90
2022-09-15T00:42:05.724Z,16.90
2022-09-15T00:43:50.506Z,16.80
2022-09-15T00:45:23.566Z,16.90
2022-09-15T00:47:15.599Z,16.90
2022-09-15T00:48:55.454Z,16.80
2022-09-15T00:50:28.448Z,16.80
2022-09-15T00:52:03.914Z,16.80
2022-09-15T00:53:38.869Z,16.80
2022-09-15T00:55:16.137Z,16.80
2022-09-15T00:56:52.703Z,16.80
2022-09-15T00:58:30.044Z,16.90
2022-09-15T01:00:07.638Z,16.90
2022-09-15T01:01:43.098Z,16.90
2022-09-15T01:03:17.500Z,16.90
2022-09-15T01:04:57.447Z,16.90
2022-09-15T01:06:35.297Z,17.00
2022-09-15T01:08:12.150Z,16.90
2022-09-15T01:09:50.880Z,16.90
2022-09-15T01:11:23.935Z,16.90
2022-09-15T01:12:59.369Z,17.00
2022-09-15T01:14:32.298Z,17.00
2022-09-15T01:16:13.811Z,17.00
2022-09-15T01:18:01.471Z,17.00
2022-09-15T01:20:10.759Z,17.00
2022-09-15T01:21:47.398Z,17.00
2022-09-15T01:23:42.003Z,17.00
2022-09-15T01:25:27.674Z,17.00
2022-09-15T01:27:24.411Z,17.00
2022-09-15T01:29:34.355Z,17.00
2022-09-15T01:31:16.723Z,17.00
2022-09-15T01:33:06.494Z,17.00
2022-09-15T01:34:44.892Z,17.00
2022-09-15T01:36:22.695Z,17.10
2022-09-15T01:38:02.207Z,17.00
2022-09-15T01:39:40.291Z,17.10
2022-09-15T01:41:17.725Z,17.10
2022-09-15T01:42:52.116Z,17.10
2022-09-15T01:44:29.016Z,17.10
2022-09-15T01:46:03.076Z,17.10
2022-09-15T01:47:38.223Z,17.10
2022-09-15T01:49:14.713Z,17.10
2022-09-15T01:50:52.166Z,17.10
2022-09-15T01:52:25.881Z,17.10
2022-09-15T01:54:03.350Z,17.10
2022-09-15T01:55:40.457Z,17.10
2022-09-15T01:57:13.417Z,17.20
2022-09-15T01:58:46.301Z,17.20
2022-09-15T02:00:18.494Z,17.20
2022-09-15T02:01:58.994Z,17.20
2022-09-15T02:03:43.042Z,17.20
2022-09-15T02:05:20.746Z,17.20
2022-09-15T02:06:58.731Z,17.20
2022-09-15T02:08:38.206Z,17.20
2022-09-15T02:10:16.353Z,17.20
2022-09-15T02:11:56.400Z,17.20
2022-09-15T02:13:39.256Z,17.20
2022-09-15T02:15:14.979Z,17.20
2022-09-15T02:16:50.866Z,17.20
2022-09-15T02:18:30.462Z,17.30
2022-09-15T02:20:12.129Z,17.30
2022-09-15T02:21:57.049Z,17.30
2022-09-15T02:23:35.427Z,17.30
2022-09-15T02:25:12.527Z,17.30
2022-09-15T02:26:48.046Z,17.30
2022-09-15T02:28:26.781Z,17.30
2022-09-15T02:30:09.059Z,17.30
2022-09-15T02:31:42.274Z,17.40
2022-09-15T02:33:16.968Z,17.30
2022-09-15T02:34:54.503Z,17.30
2022-09-15T02:36:29.316Z,17.30
2022-09-15T02:38:04.237Z,17.40
2022-09-15T02:39:40.885Z,17.40
2022-09-15T02:41:14.180Z,17.40
2022-09-15T02:42:53.240Z,17.40
2022-09-15T02:44:25.221Z,17.40
2022-09-15T02:45:58.454Z,17.40
2022-09-15T02:47:32.049Z,17.40
2022-09-15T02:49:04.174Z,17.40
2022-09-15T02:50:37.378Z,17.40
2022-09-15T02:52:11.429Z,17.50
2022-09-15T02:53:48.369Z,17.50
2022-09-15T02:55:21.432Z,17.40
2022-09-15T02:56:54.346Z,17.40
2022-09-15T02:58:27.207Z,17.40
2022-09-15T03:00:15.908Z,17.40
2022-09-15T03:01:48.928Z,17.40
2022-09-15T03:03:21.943Z,17.40
2022-09-15T03:04:55.214Z,17.50
2022-09-15T03:06:30.789Z,17.50
2022-09-15T03:08:05.204Z,17.50
2022-09-15T03:09:38.390Z,17.50
2022-09-15T03:11:12.232Z,17.50
2022-09-15T03:12:46.854Z,17.50
2022-09-15T03:14:20.217Z,17.50
2022-09-15T03:15:53.163Z,17.50
2022-09-15T03:17:26.334Z,17.50
2022-09-15T03:19:00.420Z,17.50
2022-09-15T03:20:33.363Z,17.40
2022-09-15T03:22:06.879Z,17.50
2022-09-15T03:23:41.529Z,17.40
2022-09-15T03:25:14.613Z,17.40
2022-09-15T03:26:48.110Z,17.50
2022-09-15T03:28:20.062Z,17.50
2022-09-15T03:29:53.142Z,17.40
2022-09-15T03:31:26.152Z,17.40
2022-09-15T03:32:59.143Z,17.40
2022-09-15T03:34:32.287Z,17.50
2022-09-15T03:36:05.847Z,17.50
2022-09-15T03:37:39.049Z,17.50
2022-09-15T03:39:13.468Z,17.40
2022-09-15T03:40:56.616Z,17.50
2022-09-15T03:42:29.556Z,17.40
2022-09-15T03:44:02.781Z,17.50
2022-09-15T03:45:34.569Z,17.50
2022-09-15T03:47:07.717Z,17.50
2022-09-15T03:48:41.625Z,17.50
2022-09-15T03:50:14.662Z,17.50
2022-09-15T03:51:47.648Z,17.50
2022-09-15T03:53:21.001Z,17.50
2022-09-15T03:54:55.609Z,17.50
2022-09-15T03:56:31.218Z,17.50
2022-09-15T03:58:03.276Z,17.50
2022-09-15T03:59:36.326Z,17.50
2022-09-15T04:01:09.417Z,17.60
2022-09-15T04:02:41.413Z,17.60
2022-09-15T04:04:14.898Z,17.60
2022-09-15T04:05:47.792Z,17.60
2022-09-15T04:07:20.833Z,17.60
2022-09-15T04:08:54.147Z,17.60
2022-09-15T04:10:28.345Z,17.60
2022-09-15T04:12:01.375Z,17.60
2022-09-15T04:13:33.512Z,17.60
2022-09-15T04:15:07.484Z,17.60
2022-09-15T04:16:39.469Z,17.60
2022-09-15T04:18:12.611Z,17.60
2022-09-15T04:19:45.588Z,17.60
2022-09-15T04:21:19.533Z,17.60
2022-09-15T04:22:52.489Z,17.60
2022-09-15T04:24:25.514Z,17.60
2022-09-15T04:26:01.549Z,17.60
2022-09-15T04:27:36.316Z,17.60
2022-09-15T04:29:15.742Z,17.60
2022-09-15T04:30:48.689Z,17.60
2022-09-15T04:32:22.028Z,17.60
2022-09-15T04:33:56.274Z,17.60
2022-09-15T04:35:29.316Z,17.60
2022-09-15T04:37:02.599Z,17.60
2022-09-15T04:38:36.305Z,17.60
2022-09-15T04:40:11.354Z,17.70
2022-09-15T04:41:45.745Z,17.60
2022-09-15T04:43:18.758Z,17.60
2022-09-15T04:44:51.889Z,17.70
2022-09-15T04:46:23.977Z,17.70
2022-09-15T04:47:56.930Z,17.60
2022-09-15T04:49:29.970Z,17.60
2022-09-15T04:51:03.883Z,17.60
2022-09-15T04:52:36.829Z,17.60
2022-09-15T04:54:09.916Z,17.60
2022-09-15T04:55:42.889Z,17.60
2022-09-15T04:57:17.290Z,17.60
2022-09-15T04:58:52.990Z,17.60
2022-09-15T05:00:26.919Z,17.60
2022-09-15T05:01:58.973Z,17.50
2022-09-15T05:03:31.906Z,17.60
2022-09-15T05:05:05.221Z,17.50
2022-09-15T05:06:38.810Z,17.50
2022-09-15T05:08:10.896Z,17.50
2022-09-15T05:09:44.030Z,17.50
2022-09-15T05:11:17.398Z,17.50
2022-09-15T05:12:51.699Z,17.60
2022-09-15T05:14:24.764Z,17.60
2022-09-15T05:15:57.742Z,17.50
2022-09-15T05:17:32.507Z,17.60
2022-09-15T05:19:05.766Z,17.60
2022-09-15T05:20:37.517Z,17.60
2022-09-15T05:22:10.404Z,17.60
2022-09-15T05:23:43.477Z,17.60
2022-09-15T05:25:16.483Z,17.50
2022-09-15T05:26:49.477Z,17.60
2022-09-15T05:28:24.482Z,17.50
2022-09-15T05:30:23.632Z,17.50
2022-09-15T05:31:50.830Z,17.60
2022-09-15T05:33:24.781Z,17.60
2022-09-15T05:34:57.996Z,17.60
2022-09-15T05:36:30.907Z,17.60
2022-09-15T05:38:04.100Z,17.60
2022-09-15T05:39:37.750Z,17.60
2022-09-15T05:41:17.556Z,17.60
2022-09-15T05:42:50.538Z,17.70
2022-09-15T05:44:24.862Z,17.70
2022-09-15T05:45:56.812Z,17.60
2022-09-15T05:47:30.161Z,17.60
2022-09-15T05:49:03.186Z,17.60
2022-09-15T05:50:35.534Z,17.60
2022-09-15T05:52:08.434Z,17.70
2022-09-15T05:53:41.722Z,17.70
2022-09-15T05:55:14.848Z,17.70
2022-09-15T05:56:47.876Z,17.70
2022-09-15T05:58:19.779Z,17.70
2022-09-15T05:59:54.092Z,17.70
2022-09-15T06:01:28.638Z,17.70
2022-09-15T06:03:01.885Z,17.70
2022-09-15T06:04:34.998Z,17.70
2022-09-15T06:06:08.198Z,17.70
2022-09-15T06:07:41.157Z,17.80
2022-09-15T06:09:14.099Z,17.80
2022-09-15T06:10:47.404Z,17.70
2022-09-15T06:12:20.437Z,17.80
2022-09-15T06:13:53.792Z,17.80
2022-09-15T06:15:28.278Z,17.80
2022-09-15T06:17:01.187Z,17.80
2022-09-15T06:18:36.002Z,17.80
2022-09-15T06:20:10.055Z,17.80
2022-09-15T06:21:43.047Z,17.80
2022-09-15T06:23:15.370Z,17.90
2022-09-15T06:24:48.433Z,17.90
2022-09-15T06:26:21.515Z,18.00
2022-09-15T06:27:54.786Z,18.00
2022-09-15T06:29:29.031Z,18.00
2022-09-15T06:31:03.595Z,18.00
2022-09-15T06:32:47.421Z,18.10
2022-09-15T06:34:21.693Z,18.10
2022-09-15T06:35:54.987Z,18.20
2022-09-15T06:37:27.959Z,18.30
2022-09-15T06:39:01.120Z,18.50
2022-09-15T06:40:32.996Z,18.50
2022-09-15T06:42:06.462Z,18.60
2022-09-15T06:43:39.822Z,18.60
2022-09-15T06:45:12.971Z,18.60
2022-09-15T06:46:47.195Z,18.70
2022-09-15T06:48:24.837Z,18.70
2022-09-15T06:49:59.659Z,18.60
2022-09-15T06:51:35.420Z,18.60
2022-09-15T06:53:07.381Z,18.70
2022-09-15T06:54:40.443Z,18.70
2022-09-15T06:56:16.085Z,18.70
2022-09-15T06:57:50.859Z,18.70
2022-09-15T06:59:24.566Z,18.70
2022-09-15T07:01:04.756Z,18.70
2022-09-15T07:02:39.352Z,18.70
2022-09-15T07:04:12.585Z,18.70
2022-09-15T07:05:46.253Z,18.70
2022-09-15T07:07:19.280Z,18.60
2022-09-15T07:08:55.186Z,18.60
2022-09-15T07:10:28.391Z,18.50
2022-09-15T07:12:01.166Z,18.50
2022-09-15T07:13:34.150Z,18.40
2022-09-15T07:15:08.506Z,18.30
2022-09-15T07:16:41.479Z,18.10
2022-09-15T07:18:15.857Z,18.00
2022-09-15T07:19:48.828Z,17.90
2022-09-15T07:21:22.220Z,17.80
2022-09-15T07:22:54.317Z,17.80
2022-09-15T07:24:27.362Z,17.80
2022-09-15T07:26:07.630Z,17.70
2022-09-15T07:27:40.580Z,17.70
2022-09-15T07:29:13.850Z,17.60
2022-09-15T07:30:51.581Z,17.70
2022-09-15T07:32:24.664Z,17.80
2022-09-15T07:34:02.946Z,17.90
2022-09-15T07:35:36.460Z,18.00
2022-09-15T07:37:09.351Z,18.10
2022-09-15T07:38:44.429Z,18.20
2022-09-15T07:40:17.458Z,18.20
2022-09-15T07:41:50.407Z,18.20
2022-09-15T07:43:23.382Z,18.20
2022-09-15T07:44:56.186Z,18.20
2022-09-15T07:46:32.226Z,18.20
2022-09-15T07:48:06.347Z,18.10
2022-09-15T07:49:40.608Z,18.10
2022-09-15T07:51:13.986Z,18.00
2022-09-15T07:52:47.006Z,18.00
2022-09-15T07:54:22.869Z,18.10
2022-09-15T07:55:56.907Z,18.00
2022-09-15T07:57:29.833Z,18.00
2022-09-15T07:59:03.134Z,18.10
2022-09-15T08:00:35.950Z,18.10
2022-09-15T08:02:10.934Z,18.10
2022-09-15T08:03:46.327Z,18.10
2022-09-15T08:05:20.886Z,18.10
2022-09-15T08:06:55.444Z,18.10
2022-09-15T08:08:29.015Z,18.00
2022-09-15T08:10:02.143Z,18.10
2022-09-15T08:11:35.177Z,18.00
2022-09-15T08:13:07.132Z,18.00
2022-09-15T08:14:40.104Z,18.10
2022-09-15T08:16:15.011Z,18.00
2022-09-15T08:17:47.185Z,18.10
2022-09-15T08:19:20.781Z,18.20
2022-09-15T08:20:55.493Z,18.20
2022-09-15T08:22:28.596Z,18.20
2022-09-15T08:24:05.315Z,18.30
2022-09-15T08:25:39.171Z,18.40
2022-09-15T08:27:12.134Z,18.40
2022-09-15T08:28:45.265Z,18.50
2022-09-15T08:30:18.590Z,18.60
2022-09-15T08:31:51.794Z,18.50
2022-09-15T08:33:25.117Z,18.60
2022-09-15T08:34:58.164Z,18.60
2022-09-15T08:36:32.631Z,18.70
2022-09-15T08:38:06.558Z,18.70
2022-09-15T08:39:39.786Z,18.70
2022-09-15T08:41:14.632Z,18.60
2022-09-15T08:42:49.139Z,18.60
2022-09-15T08:44:36.020Z,18.70
2022-09-15T08:46:15.389Z,18.70
2022-09-15T08:47:51.483Z,18.60
2022-09-15T08:49:47.836Z,18.50
2022-09-15T08:51:28.637Z,18.60
2022-09-15T08:53:06.883Z,18.60
2022-09-15T08:54:40.501Z,18.70
2022-09-15T08:56:18.037Z,18.70
2022-09-15T08:57:53.877Z,18.50
2022-09-15T08:59:32.675Z,18.40
2022-09-15T09:01:17.119Z,18.30
2022-09-15T09:03:24.006Z,18.20
2022-09-15T09:05:05.291Z,18.20
2022-09-15T09:06:47.133Z,18.20
2022-09-15T09:08:46.313Z,18.20
2022-09-15T09:10:30.274Z,18.20
2022-09-15T09:12:44.898Z,18.30
2022-09-15T09:14:26.339Z,18.20
2022-09-15T09:27:58.285Z,18.00
2022-09-15T09:29:35.723Z,18.00
2022-09-15T09:31:18.641Z,18.00
2022-09-15T09:32:58.582Z,18.00
2022-09-15T09:34:39.335Z,18.00
2022-09-15T09:36:13.259Z,18.00
2022-09-15T09:37:46.578Z,17.90
2022-09-15T09:39:19.600Z,17.90
2022-09-15T09:40:52.927Z,17.90
2022-09-15T09:42:29.952Z,17.90
2022-09-15T09:44:07.490Z,18.00
2022-09-15T09:45:40.478Z,18.00
2022-09-15T09:47:13.610Z,17.90
2022-09-15T09:48:49.214Z,17.80
2022-09-15T09:50:38.682Z,17.60
2022-09-15T09:52:13.022Z,17.60
2022-09-15T09:53:54.372Z,17.50
2022-09-15T09:55:28.957Z,17.50
2022-09-15T09:57:23.399Z,17.40
2022-09-15T09:58:56.675Z,17.40
2022-09-15T10:00:34.317Z,17.40
2022-09-15T10:02:15.755Z,17.40
2022-09-15T10:03:48.811Z,17.50
2022-09-15T10:05:21.960Z,17.50
2022-09-15T10:06:57.411Z,17.70
2022-09-15T10:08:30.813Z,17.90
2022-09-15T10:10:04.483Z,18.10
2022-09-15T10:11:43.016Z,18.20
2022-09-15T10:13:15.937Z,18.30
2022-09-15T10:14:53.309Z,18.40
2022-09-15T10:16:27.779Z,18.70
2022-09-15T10:18:02.253Z,18.90
2022-09-15T10:19:45.124Z,19.00
2022-09-15T10:21:23.464Z,19.10
2022-09-15T10:23:04.867Z,19.10
2022-09-15T10:24:40.799Z,19.20
2022-09-15T10:26:22.099Z,19.20
2022-09-15T10:28:04.553Z,19.20
2022-09-15T10:29:40.892Z,19.10
2022-09-15T10:31:26.617Z,19.00
2022-09-15T10:33:20.251Z,18.80
2022-09-15T10:35:05.210Z,18.90
2022-09-15T10:36:38.753Z,18.80
2022-09-15T10:38:15.763Z,19.00
2022-09-15T10:39:55.240Z,19.10
2022-09-15T10:41:31.040Z,19.00
2022-09-15T10:43:26.250Z,19.00
2022-09-15T10:45:10.975Z,19.00
2022-09-15T10:46:56.339Z,19.10
2022-09-15T10:48:49.428Z,19.30
2022-09-15T10:50:28.600Z,19.40
2022-09-15T10:52:13.684Z,19.70
2022-09-15T10:54:15.081Z,19.90
2022-09-15T10:55:56.081Z,19.90
2022-09-15T10:57:44.162Z,19.70
2022-09-15T10:59:43.103Z,19.60
2022-09-15T11:01:36.002Z,19.50
2022-09-15T11:03:41.129Z,19.30
2022-09-15T11:05:28.553Z,19.00
2022-09-15T11:07:06.507Z,18.80
2022-09-15T11:09:02.738Z,18.60
2022-09-15T11:10:44.182Z,18.50
2022-09-15T11:12:38.607Z,18.60
2022-09-15T11:14:27.589Z,18.60
2022-09-15T11:16:10.046Z,18.50
2022-09-15T11:17:54.302Z,18.60
2022-09-15T11:19:42.282Z,18.60
2022-09-15T11:21:30.771Z,18.60
2022-09-15T11:23:11.357Z,18.50
2022-09-15T11:24:47.958Z,18.40
2022-09-15T11:26:25.107Z,18.50
2022-09-15T11:28:03.885Z,18.60
2022-09-15T11:29:50.756Z,18.50
2022-09-15T11:31:27.237Z,18.50
2022-09-15T11:33:04.305Z,18.40
2022-09-15T11:34:44.538Z,18.30
2022-09-15T11:36:21.653Z,18.30
2022-09-15T11:38:00.476Z,18.20
2022-09-15T11:39:39.996Z,18.20
2022-09-15T11:41:27.143Z,18.10
2022-09-15T11:43:07.141Z,18.00
2022-09-15T11:44:42.127Z,17.90
2022-09-15T11:46:20.440Z,17.80
2022-09-15T11:47:57.955Z,17.80
2022-09-15T11:49:36.889Z,17.90
2022-09-15T11:51:12.782Z,17.90
2022-09-15T11:52:54.264Z,18.10
2022-09-15T11:54:36.993Z,18.10
2022-09-15T11:56:19.564Z,18.20
2022-09-15T11:58:00.527Z,18.20
2022-09-15T11:59:42.870Z,18.40
2022-09-15T12:01:19.704Z,18.50
2022-09-15T12:02:57.726Z,18.60
2022-09-15T12:04:36.351Z,18.60
2022-09-15T12:06:15.384Z,18.60
2022-09-15T12:07:54.030Z,18.70
2022-09-15T12:09:29.185Z,18.70
2022-09-15T12:11:07.338Z,18.70
2022-09-15T12:12:42.529Z,18.70
2022-09-15T12:14:20.280Z,18.60
2022-09-15T12:15:54.035Z,18.50
2022-09-15T12:17:34.429Z,18.40
2022-09-15T12:19:17.142Z,18.20
2022-09-15T12:20:55.227Z,18.00
2022-09-15T12:22:35.384Z,17.90
2022-09-15T12:24:16.240Z,17.70
2022-09-15T12:26:05.113Z,17.50
2022-09-15T12:27:38.131Z,17.30
2022-09-15T12:29:42.275Z,17.30
2022-09-15T12:31:24.748Z,17.30
2022-09-15T12:32:57.972Z,17.40
2022-09-15T12:34:39.367Z,17.50
2022-09-15T12:36:44.969Z,17.60
2022-09-15T12:38:22.301Z,17.70
2022-09-15T12:39:55.309Z,17.80
2022-09-15T12:41:30.589Z,18.00
2022-09-15T12:43:05.045Z,18.10
2022-09-15T12:44:43.183Z,18.30
2022-09-15T12:46:19.504Z,18.50
2022-09-15T12:47:55.644Z,18.50
2022-09-15T12:49:33.639Z,18.50
2022-09-15T12:51:10.723Z,18.40
2022-09-15T12:52:50.336Z,18.40
2022-09-15T12:56:26.604Z,18.20
2022-09-15T12:58:02.217Z,18.20
2022-09-15T12:59:35.469Z,18.20
2022-09-15T13:01:29.473Z,18.10
2022-09-15T13:03:03.253Z,18.20
2022-09-15T13:04:53.239Z,18.10
2022-09-15T13:06:27.514Z,18.00
2022-09-15T13:08:00.602Z,18.10
2022-09-15T13:09:45.194Z,18.10
2022-09-15T13:11:25.404Z,18.10
2022-09-15T13:13:19.337Z,18.00
2022-09-15T13:14:55.971Z,18.00
2022-09-15T13:16:34.317Z,17.90
2022-09-15T13:18:07.913Z,17.80
2022-09-15T13:19:46.493Z,17.70
2022-09-15T13:21:23.970Z,17.60
2022-09-15T13:22:57.331Z,17.60
2022-09-15T13:24:47.169Z,17.50
2022-09-15T13:26:27.392Z,17.50
2022-09-15T13:28:02.746Z,17.50
2022-09-15T13:29:41.225Z,17.50
2022-09-15T13:31:29.756Z,17.50
2022-09-15T13:33:11.721Z,17.40
2022-09-15T13:35:21.021Z,17.40
2022-09-15T13:39:21.269Z,17.60
2022-09-15T13:41:19.198Z,17.60
2022-09-15T13:43:08.663Z,17.80
2022-09-15T13:45:20.021Z,18.00
2022-09-15T13:47:07.693Z,18.30
2022-09-15T13:48:49.674Z,18.50
2022-09-15T13:50:25.732Z,18.60
2022-09-15T13:52:02.682Z,18.70
2022-09-15T13:53:45.361Z,18.70
2022-09-15T13:55:25.472Z,18.90
2022-09-15T13:57:02.333Z,19.00
2022-09-15T14:00:33.657Z,19.60
2022-09-15T14:02:09.698Z,19.90
2022-09-15T14:03:47.356Z,19.90
2022-09-15T14:05:21.529Z,19.70
2022-09-15T14:07:00.038Z,19.70
2022-09-15T14:08:35.162Z,19.70
2022-09-15T14:10:18.554Z,19.50
2022-09-15T14:11:55.235Z,19.40
2022-09-15T14:13:29.798Z,19.20
2022-09-15T14:15:08.064Z,19.20
2022-09-15T14:16:49.814Z,19.20
2022-09-15T14:18:22.846Z,19.20
2022-09-15T14:19:57.360Z,19.30
2022-09-15T14:21:33.085Z,19.30
2022-09-15T14:23:17.203Z,19.30
2022-09-15T14:24:51.894Z,19.10
2022-09-15T14:26:28.017Z,18.90
2022-09-15T14:28:00.936Z,18.80
2022-09-15T14:29:33.917Z,18.80
2022-09-15T14:31:08.466Z,18.80
2022-09-15T14:32:47.517Z,18.80
2022-09-15T14:34:23.983Z,18.80
2022-09-15T14:35:57.081Z,18.70
2022-09-15T14:37:32.013Z,18.50
2022-09-15T14:39:19.430Z,18.40
2022-09-15T14:40:53.505Z,18.50
2022-09-15T14:42:30.681Z,18.70
2022-09-15T14:44:04.582Z,18.70
2022-09-15T14:47:35.238Z,18.50
2022-09-15T14:49:11.134Z,18.40
2022-09-15T14:50:46.120Z,18.50
2022-09-15T14:52:25.580Z,18.70
2022-09-15T14:54:01.099Z,18.90
2022-09-15T14:55:39.074Z,19.10
2022-09-15T14:58:57.328Z,19.10
2022-09-15T15:00:35.129Z,19.20
2022-09-15T15:02:22.338Z,19.30
2022-09-15T15:04:09.997Z,19.30
2022-09-15T15:05:46.284Z,19.40
2022-09-15T15:07:23.366Z,19.40
2022-09-15T15:09:03.091Z,19.40
2022-09-15T15:10:37.525Z,19.30
2022-09-15T15:12:19.221Z,19.20
2022-09-15T15:13:53.482Z,19.10
2022-09-15T15:15:26.915Z,19.10
2022-09-15T15:17:00.684Z,19.10
2022-09-15T15:18:40.230Z,19.20
2022-09-15T15:20:18.360Z,19.20
2022-09-15T15:21:51.340Z,19.20
2022-09-15T15:23:25.505Z,19.20
2022-09-15T15:24:58.764Z,19.10
2022-09-15T15:26:35.744Z,19.00
2022-09-15T15:28:29.063Z,19.00
2022-09-15T15:30:26.711Z,19.00
2022-09-15T15:32:06.271Z,19.00
2022-09-15T15:33:47.997Z,19.00
2022-09-15T15:35:22.790Z,19.00
2022-09-15T15:37:04.196Z,18.90
2022-09-15T15:38:46.365Z,18.90
2022-09-15T15:40:23.146Z,18.90
2022-09-15T15:42:03.294Z,18.90
2022-09-15T15:43:36.521Z,18.90
2022-09-15T15:45:21.857Z,18.80
2022-09-15T15:46:56.705Z,18.80
2022-09-15T15:48:36.884Z,18.80
2022-09-15T15:50:14.479Z,18.60
2022-09-15T15:51:50.168Z,18.60
2022-09-15T15:53:23.227Z,18.50
2022-09-15T15:54:56.230Z,18.60
2022-09-15T15:56:29.435Z,18.40
2022-09-15T15:58:02.204Z,18.40
2022-09-15T15:59:35.219Z,18.30
2022-09-15T16:01:13.445Z,18.20
2022-09-15T16:02:46.652Z,18.10
2022-09-15T16:04:19.860Z,18.10
2022-09-15T16:05:53.845Z,18.00
2022-09-15T16:07:33.162Z,17.90
2022-09-15T16:09:07.075Z,17.90
2022-09-15T16:10:42.748Z,17.90
2022-09-15T16:12:16.496Z,17.90
2022-09-15T16:13:51.582Z,17.80
2022-09-15T16:15:24.630Z,17.70
2022-09-15T16:17:00.406Z,17.70
2022-09-15T16:18:33.311Z,17.70
2022-09-15T16:20:07.250Z,17.60
2022-09-15T16:21:42.626Z,17.60
2022-09-15T16:23:19.181Z,17.60
2022-09-15T16:24:52.167Z,17.50
2022-09-15T16:26:26.043Z,17.60
2022-09-15T16:28:00.660Z,17.60
2022-09-15T16:29:36.270Z,17.70
2022-09-15T16:31:13.171Z,17.60
2022-09-15T16:32:46.272Z,17.60
2022-09-15T16:34:19.495Z,17.60
2022-09-15T16:35:55.134Z,17.60
2022-09-15T16:37:28.203Z,17.50
2022-09-15T16:39:02.840Z,17.50
2022-09-15T16:40:36.905Z,17.50
2022-09-15T16:42:10.731Z,17.50
2022-09-15T16:43:44.246Z,17.50
2022-09-15T16:45:24.419Z,17.50
2022-09-15T16:46:57.486Z,17.50
2022-09-15T16:48:30.543Z,17.40
2022-09-15T16:50:03.604Z,17.40
2022-09-15T16:51:36.755Z,17.40
2022-09-15T16:53:13.747Z,17.40
2022-09-15T16:54:48.087Z,17.40
2022-09-15T16:56:21.122Z,17.40
2022-09-15T16:57:53.172Z,17.40
2022-09-15T16:59:26.221Z,17.30
2022-09-15T17:00:59.489Z,17.30
2022-09-15T17:02:31.308Z,17.30
2022-09-15T17:04:09.800Z,17.20
2022-09-15T17:05:48.516Z,17.10
2022-09-15T17:07:21.917Z,17.10
2022-09-15T17:08:55.671Z,17.10
2022-09-15T17:10:30.141Z,17.00
2022-09-15T17:12:04.607Z,17.00
2022-09-15T17:13:37.651Z,16.90
2022-09-15T17:15:23.969Z,16.80
2022-09-15T17:16:57.000Z,16.80
2022-09-15T17:18:30.272Z,16.70
2022-09-15T17:20:03.203Z,16.70
2022-09-15T17:21:36.299Z,16.60
2022-09-15T17:23:19.472Z,16.60
2022-09-15T17:24:52.447Z,16.50
2022-09-15T17:26:31.277Z,16.40
2022-09-15T17:28:04.528Z,16.40
2022-09-15T17:29:37.451Z,16.30
2022-09-15T17:31:15.534Z,16.20
2022-09-15T17:32:48.049Z,16.20
2022-09-15T17:34:21.055Z,16.20
2022-09-15T17:35:54.324Z,16.10
2022-09-15T17:37:26.112Z,16.00
2022-09-15T17:38:59.114Z,16.00
2022-09-15T17:40:32.501Z,15.90
2022-09-15T17:42:07.746Z,15.90
2022-09-15T17:43:40.973Z,15.90
2022-09-15T17:45:20.210Z,15.90
2022-09-15T17:46:53.233Z,15.80
2022-09-15T17:48:26.350Z,15.80
2022-09-15T17:49:58.271Z,15.80
2022-09-15T17:51:31.314Z,15.70
2022-09-15T17:53:07.671Z,15.70
2022-09-15T17:54:43.732Z,15.70
2022-09-15T17:56:17.015Z,15.70
2022-09-15T17:57:51.292Z,15.70
2022-09-15T17:59:24.179Z,15.60
2022-09-15T18:00:57.256Z,15.60
2022-09-15T18:02:29.451Z,15.60
2022-09-15T18:04:03.080Z,15.50
2022-09-15T18:05:37.454Z,15.50
2022-09-15T18:07:11.221Z,15.60
2022-09-15T18:08:44.236Z,15.50
2022-09-15T18:10:18.580Z,15.50
2022-09-15T18:11:51.605Z,15.50
2022-09-15T18:13:27.558Z,15.50
2022-09-15T18:15:00.563Z,15.40
2022-09-15T18:16:33.522Z,15.30
2022-09-15T18:18:08.666Z,15.30
2022-09-15T18:19:42.222Z,15.30
2022-09-15T18:21:24.517Z,15.20
2022-09-15T18:22:59.939Z,15.10
2022-09-15T18:24:32.938Z,15.10
2022-09-15T18:26:05.926Z,15.20
2022-09-15T18:27:38.835Z,15.10
2022-09-15T18:29:13.225Z,15.10
2022-09-15T18:30:48.358Z,15.10
2022-09-15T18:32:21.478Z,15.10
2022-09-15T18:33:54.540Z,15.10
2022-09-15T18:35:28.125Z,15.00
2022-09-15T18:37:01.155Z,15.00
2022-09-15T18:38:34.263Z,15.00
2022-09-15T18:40:09.534Z,15.00
2022-09-15T18:41:42.698Z,15.00
2022-09-15T18:43:15.669Z,14.90
2022-09-15T18:44:51.986Z,14.80
2022-09-15T18:46:25.138Z,14.70
2022-09-15T18:47:58.162Z,14.70
2022-09-15T18:49:31.104Z,14.70
2022-09-15T18:51:08.915Z,14.60
2022-09-15T18:52:43.130Z,14.50
2022-09-15T18:54:16.093Z,14.40
2022-09-15T18:55:49.100Z,14.40
2022-09-15T18:57:22.315Z,14.40
2022-09-15T18:58:55.294Z,14.30
2022-09-15T19:00:31.488Z,14.30
2022-09-15T19:02:04.738Z,14.30
2022-09-15T19:03:44.011Z,14.20
2022-09-15T19:05:17.937Z,14.20
2022-09-15T19:06:51.831Z,14.20
2022-09-15T19:08:24.765Z,14.20
2022-09-15T19:09:57.842Z,14.20
2022-09-15T19:11:30.894Z,14.20
2022-09-15T19:13:04.855Z,14.20
2022-09-15T19:14:38.104Z,14.20
2022-09-15T19:16:12.515Z,14.20
2022-09-15T19:17:45.676Z,14.30
2022-09-15T19:19:19.569Z,14.30
2022-09-15T19:20:53.093Z,14.30
2022-09-15T19:22:26.539Z,14.30
2022-09-15T19:24:00.324Z,14.30
2022-09-15T19:25:34.021Z,14.30
2022-09-15T19:27:08.805Z,14.40
2022-09-15T19:28:42.104Z,14.40
2022-09-15T19:30:15.109Z,14.40
2022-09-15T19:31:49.409Z,14.40
2022-09-15T19:33:22.387Z,14.40
2022-09-15T19:34:55.432Z,14.40
2022-09-15T19:36:29.289Z,14.40
2022-09-15T19:38:02.496Z,14.40
2022-09-15T19:39:35.617Z,14.30
2022-09-15T19:41:11.171Z,14.30
2022-09-15T19:42:45.447Z,14.30
2022-09-15T19:44:18.839Z,14.30
2022-09-15T19:45:52.006Z,14.20
2022-09-15T19:47:26.415Z,14.20
2022-09-15T19:48:59.956Z,14.20
2022-09-15T19:50:32.838Z,14.20
2022-09-15T19:52:06.493Z,14.30
2022-09-15T19:53:39.541Z,14.30
2022-09-15T19:55:13.317Z,14.30
2022-09-15T19:56:46.227Z,14.30
2022-09-15T19:58:19.601Z,14.30
2022-09-15T19:59:52.556Z,14.30
2022-09-15T20:01:26.761Z,14.30
2022-09-15T20:03:01.313Z,14.30
2022-09-15T20:04:34.361Z,14.30
2022-09-15T20:06:09.349Z,14.30
2022-09-15T20:07:42.375Z,14.20
2022-09-15T20:09:17.660Z,14.20
2022-09-15T20:10:50.650Z,14.20
2022-09-15T20:12:23.614Z,14.20
2022-09-15T20:13:57.244Z,14.20
2022-09-15T20:15:30.171Z,14.20
2022-09-15T20:17:03.137Z,14.30
2022-09-15T20:18:41.172Z,14.30
2022-09-15T20:20:14.132Z,14.30
2022-09-15T20:21:51.080Z,14.30
2022-09-15T20:23:25.049Z,14.20
2022-09-15T20:24:58.123Z,14.20
2022-09-15T20:26:31.728Z,14.10
2022-09-15T20:28:04.795Z,14.10
2022-09-15T20:29:37.802Z,14.10
2022-09-15T20:31:13.666Z,14.10
2022-09-15T20:32:47.838Z,14.20
2022-09-15T20:34:22.122Z,14.20
2022-09-15T20:35:55.120Z,14.10
2022-09-15T20:37:28.067Z,14.10
2022-09-15T20:39:03.295Z,14.20
2022-09-15T20:40:36.156Z,14.20
2022-09-15T20:42:09.071Z,14.20
2022-09-15T20:43:43.485Z,14.20
2022-09-15T20:45:16.481Z,14.10
2022-09-15T20:46:49.412Z,14.10
2022-09-15T20:48:22.363Z,14.10
2022-09-15T20:49:56.709Z,14.10
2022-09-15T20:51:31.747Z,14.10
2022-09-15T20:53:04.754Z,14.10
2022-09-15T20:54:37.699Z,14.10
2022-09-15T20:56:13.357Z,14.10
2022-09-15T20:57:59.544Z,14.10
2022-09-15T20:59:32.465Z,14.10
2022-09-15T21:01:07.732Z,14.10
2022-09-15T21:02:40.823Z,14.10
2022-09-15T21:04:13.834Z,14.10